KBBB/BBB METAR and TAF weather

Enter ICAO airport designator
Station Type Date Time Source
KBBB METAR 2019/09/20 20:15 UTC NOAA

KBBB 202015Z AUTO 18010G16KT 10SM SCT041 SCT070 29/22 A2988 RMK AO2


Station Type Date Time Source
KBBB Decoded METAR 2019/09/20 20:15 UTC NOAA

Benson Municipal, MN, United States (KBBB) 45-19N 095-39W
Sep 20, 2019 - 04:15 PM EDT / 2019.09.20 2015 UTC
Wind: from the S (180 degrees) at 12 MPH (10 KT) gusting to 18 MPH (16 KT):0
Visibility: 10 mile(s):0
Sky conditions: partly cloudy
Temperature: 84 F (29 C)
Dew Point: 71 F (22 C)
Relative Humidity: 65%
Pressure (altimeter): 29.88 in. Hg (1011 hPa)
ob: KBBB 202015Z AUTO 18010G16KT 10SM SCT041 SCT070 29/22 A2988 RMK AO2
cycle: 20

Station Type Date Time Source
KBBB TAF UTC NOAA

Error!

Example: see airport list